Terminal Aerodrome Forecast
Issued by NWS Binghamton, NY

Home | Current Version | Previous Version | Text Only | Print | Product List | Glossary On
Versions: 1 2 3 4 5 6 7 8 9 10 11 12 13 14 15 16 17 18
508
FTUS41 KBGM 252128 AAA
TAFSYR
TAF AMD
KSYR 252128Z 2521/2618 30008KT P6SM SCT050 BKN100
      TEMPO 2521/2523 VRB35KT 5SM -TSRA BR OVC035CB
     FM260000 24006KT P6SM BKN060 BKN250
     FM261200 26007KT P6SM -SHRA BKN035=

USA.gov is the U.S. government's official web portal to all federal, state and local government web resources and services.